Time;durP1;ratioP1;P1;durP2;ratioP2;P2;SDS_P1;SDS_P2;PMS_P1;PMS_P2;Temp;Humidity;BMP_temperature;BMP_pressure;BME280_temperature;BME280_humidity;BME280_pressure;Samples;Min_cycle;Max_cycle;Signal;HPM_P1;HPM_P2
2021/06/09 00:00:18;;;;;;;14.10;12.70;;;;;;;;;;2081119;28;20160;-52
2021/06/09 00:01:19;;;;;;;15.70;13.68;;;;;;;;;;2089192;28;20183;-55
2021/06/09 00:02:19;;;;;;;15.13;13.50;;;;;;;;;;2089027;28;20578;-55
2021/06/09 00:03:22;;;;;;;14.45;13.05;;;;;;;;;;2079785;28;20180;-57
2021/06/09 00:04:23;;;;;;;13.73;12.32;;;;;;;;;;2072168;28;20205;-55
2021/06/09 00:05:23;;;;;;;13.65;12.35;;;;;;;;;;2080295;28;20176;-52
2021/06/09 00:06:23;;;;;;;14.15;12.77;;;;;;;;;;2088565;28;20170;-52
2021/06/09 00:07:24;;;;;;;14.73;13.32;;;;;;;;;;2085794;28;20179;-55
2021/06/09 00:08:24;;;;;;;12.77;11.57;;;;;;;;;;2088018;28;20627;-52
2021/06/09 00:09:24;;;;;;;14.35;12.85;;;;;;;;;;2080201;28;20192;-52
2021/06/09 00:10:25;;;;;;;13.65;12.35;;;;;;;;;;2080856;28;20171;-52
2021/06/09 00:11:25;;;;;;;14.80;13.40;;;;;;;;;;2087721;28;20184;-53
2021/06/09 00:12:26;;;;;;;12.93;11.65;;;;;;;;;;2089079;28;20599;-52
2021/06/09 00:13:28;;;;;;;15.43;13.07;;;;;;;;;;2088419;28;20175;-52
2021/06/09 00:14:28;;;;;;;14.63;13.25;;;;;;;;;;2087202;28;20211;-52
2021/06/09 00:15:29;;;;;;;15.00;13.60;;;;;;;;;;2091256;28;20179;-53
2021/06/09 00:16:29;;;;;;;13.82;12.43;;;;;;;;;;2092345;28;20184;-50
2021/06/09 00:17:29;;;;;;;15.10;13.38;;;;;;;;;;2089241;28;20176;-51
2021/06/09 00:18:30;;;;;;;15.18;12.75;;;;;;;;;;2088899;28;20164;-55
2021/06/09 00:19:30;;;;;;;13.85;12.60;;;;;;;;;;2088796;28;20239;-52
2021/06/09 00:20:30;;;;;;;14.90;13.30;;;;;;;;;;2088826;28;20199;-52
2021/06/09 00:21:31;;;;;;;13.75;12.45;;;;;;;;;;2092928;28;20729;-51
2021/06/09 00:22:31;;;;;;;13.65;12.35;;;;;;;;;;2088717;28;20224;-52
2021/06/09 00:23:32;;;;;;;13.82;12.43;;;;;;;;;;2076668;28;20661;-50
2021/06/09 00:24:32;;;;;;;13.23;11.95;;;;;;;;;;2082004;28;20210;-54
2021/06/09 00:25:32;;;;;;;14.45;12.93;;;;;;;;;;2090901;28;20171;-52
2021/06/09 00:26:33;;;;;;;14.23;12.93;;;;;;;;;;2091475;28;20175;-50
2021/06/09 00:27:33;;;;;;;13.90;12.50;;;;;;;;;;2088859;28;20668;-52
2021/06/09 00:28:34;;;;;;;14.18;12.60;;;;;;;;;;2081011;28;20707;-52
2021/06/09 00:29:34;;;;;;;14.00;12.70;;;;;;;;;;2077650;28;20539;-55
2021/06/09 00:30:35;;;;;;;15.15;13.73;;;;;;;;;;2080297;28;20179;-52
2021/06/09 00:31:35;;;;;;;14.43;12.85;;;;;;;;;;2087811;28;20449;-52
2021/06/09 00:32:35;;;;;;;15.20;13.70;;;;;;;;;;2086630;28;20188;-53
2021/06/09 00:33:35;;;;;;;14.10;12.73;;;;;;;;;;2089913;28;20539;-53
2021/06/09 00:34:36;;;;;;;14.05;12.82;;;;;;;;;;2087044;28;20187;-51
2021/06/09 00:35:36;;;;;;;13.85;12.55;;;;;;;;;;2077504;28;20181;-52
2021/06/09 00:36:36;;;;;;;14.65;13.05;;;;;;;;;;2079948;28;20200;-54
2021/06/09 00:37:37;;;;;;;13.48;11.98;;;;;;;;;;2088729;28;20179;-52
2021/06/09 00:38:37;;;;;;;15.38;12.95;;;;;;;;;;2089070;28;20174;-52
2021/06/09 00:39:37;;;;;;;13.68;12.25;;;;;;;;;;2088774;28;20172;-55
2021/06/09 00:40:38;;;;;;;15.00;13.43;;;;;;;;;;2085956;28;20666;-50
2021/06/09 00:41:38;;;;;;;14.68;13.23;;;;;;;;;;2091670;28;20189;-53
2021/06/09 00:42:39;;;;;;;14.23;12.80;;;;;;;;;;2091330;28;20652;-54
2021/06/09 00:43:40;;;;;;;13.80;12.50;;;;;;;;;;2077465;28;20173;-51
2021/06/09 00:44:40;;;;;;;14.18;12.77;;;;;;;;;;2077623;28;20187;-53
2021/06/09 00:45:42;;;;;;;14.75;13.25;;;;;;;;;;2093078;28;20190;-56
2021/06/09 00:46:43;;;;;;;13.70;12.43;;;;;;;;;;2079520;28;20180;-55
2021/06/09 00:47:43;;;;;;;13.63;12.40;;;;;;;;;;2082253;28;20266;-53
2021/06/09 00:48:44;;;;;;;14.98;12.98;;;;;;;;;;2084891;28;20169;-54
2021/06/09 00:49:44;;;;;;;13.73;12.50;;;;;;;;;;2088677;28;20175;-56
2021/06/09 00:50:44;;;;;;;18.98;14.10;;;;;;;;;;2093577;28;20258;-55
2021/06/09 00:51:44;;;;;;;13.63;12.27;;;;;;;;;;2090907;28;20250;-54
2021/06/09 00:52:45;;;;;;;14.63;13.13;;;;;;;;;;2088909;28;20673;-54
2021/06/09 00:53:54;;;;;;;14.35;12.98;;;;;;;;;;2088887;28;20191;-57
2021/06/09 00:54:55;;;;;;;14.80;13.00;;;;;;;;;;2081989;28;20172;-55
2021/06/09 00:55:57;;;;;;;14.95;13.43;;;;;;;;;;2094468;28;20647;-56
2021/06/09 00:56:58;;;;;;;14.35;12.98;;;;;;;;;;2090615;28;20211;-55
2021/06/09 00:57:58;;;;;;;15.82;13.80;;;;;;;;;;2079731;28;20180;-52
2021/06/09 00:58:58;;;;;;;14.75;13.20;;;;;;;;;;2072382;28;20715;-54
2021/06/09 00:59:59;;;;;;;15.38;13.88;;;;;;;;;;2088470;28;20226;-55
2021/06/09 01:01:00;;;;;;;15.10;13.70;;;;;;;;;;2087749;28;20222;-53
2021/06/09 01:02:00;;;;;;;13.60;12.25;;;;;;;;;;2089130;28;20167;-54
2021/06/09 01:03:01;;;;;;;13.90;12.45;;;;;;;;;;2088186;28;20663;-56
2021/06/09 01:04:02;;;;;;;14.65;12.95;;;;;;;;;;2089537;28;20200;-54
2021/06/09 01:05:04;;;;;;;14.40;12.90;;;;;;;;;;2090282;28;20171;-52
2021/06/09 01:06:04;;;;;;;14.63;12.40;;;;;;;;;;2090164;28;20168;-57
2021/06/09 01:07:05;;;;;;;14.45;12.80;;;;;;;;;;2081567;28;20214;-55
2021/06/09 01:08:06;;;;;;;14.63;12.57;;;;;;;;;;2072331;28;20204;-55
2021/06/09 01:09:07;;;;;;;13.77;12.30;;;;;;;;;;2081526;28;20718;-57
2021/06/09 01:10:08;;;;;;;14.00;12.15;;;;;;;;;;2092061;28;20163;-55
2021/06/09 01:11:15;;;;;;;13.43;12.23;;;;;;;;;;2090089;28;20590;-55
2021/06/09 01:12:16;;;;;;;13.50;12.25;;;;;;;;;;2090907;28;20258;-54
2021/06/09 01:13:19;;;;;;;13.63;12.32;;;;;;;;;;2081378;28;20192;-55
2021/06/09 01:14:20;;;;;;;13.90;12.50;;;;;;;;;;2081502;28;21830;-55
2021/06/09 01:15:20;;;;;;;12.52;11.40;;;;;;;;;;2090196;28;20263;-54
2021/06/09 01:16:22;;;;;;;13.13;11.82;;;;;;;;;;2080154;28;20184;-53
2021/06/09 01:17:22;;;;;;;14.18;12.65;;;;;;;;;;2074647;28;20220;-54
2021/06/09 01:18:23;;;;;;;13.23;12.02;;;;;;;;;;2087328;28;20200;-53
2021/06/09 01:19:23;;;;;;;13.07;11.80;;;;;;;;;;2092651;28;20632;-54
2021/06/09 01:20:23;;;;;;;14.65;13.32;;;;;;;;;;2093810;28;20180;-55
2021/06/09 01:21:25;;;;;;;12.57;11.38;;;;;;;;;;2082441;28;20625;-54
2021/06/09 01:22:25;;;;;;;13.18;11.88;;;;;;;;;;2081140;28;20656;-52
2021/06/09 01:23:26;;;;;;;13.60;12.30;;;;;;;;;;2087627;28;20168;-55
2021/06/09 01:24:26;;;;;;;15.10;12.70;;;;;;;;;;2092040;28;20171;-52
2021/06/09 01:25:26;;;;;;;14.23;13.00;;;;;;;;;;2081265;28;20284;-53
2021/06/09 01:26:27;;;;;;;13.45;11.98;;;;;;;;;;2082937;28;20173;-55
2021/06/09 01:27:28;;;;;;;15.13;13.20;;;;;;;;;;2087057;28;20208;-52
2021/06/09 01:28:28;;;;;;;13.80;12.40;;;;;;;;;;2085955;28;20216;-53
2021/06/09 01:29:28;;;;;;;13.48;12.20;;;;;;;;;;2081032;28;20173;-54
2021/06/09 01:30:28;;;;;;;13.07;11.98;;;;;;;;;;2083366;28;20267;-55
2021/06/09 01:31:29;;;;;;;14.38;12.45;;;;;;;;;;2092177;28;20167;-56
2021/06/09 01:32:29;;;;;;;13.07;11.77;;;;;;;;;;2090033;28;20186;-52
2021/06/09 01:33:30;;;;;;;12.75;11.65;;;;;;;;;;2089515;28;20203;-59
2021/06/09 01:34:30;;;;;;;13.18;11.88;;;;;;;;;;2081114;28;20175;-54
2021/06/09 01:35:31;;;;;;;13.48;12.10;;;;;;;;;;2083470;28;20649;-54
2021/06/09 01:36:32;;;;;;;12.88;11.48;;;;;;;;;;2083504;28;20633;-56
2021/06/09 01:37:32;;;;;;;13.70;11.68;;;;;;;;;;2081208;28;20210;-54
2021/06/09 01:38:33;;;;;;;13.23;11.82;;;;;;;;;;2089901;28;20693;-55
2021/06/09 01:39:33;;;;;;;13.18;11.98;;;;;;;;;;2089873;28;20160;-55
2021/06/09 01:40:33;;;;;;;12.93;11.73;;;;;;;;;;2090608;28;20324;-53
2021/06/09 01:41:34;;;;;;;12.13;10.90;;;;;;;;;;2093675;28;20167;-54
2021/06/09 01:42:35;;;;;;;13.70;11.73;;;;;;;;;;2090003;28;20199;-54
2021/06/09 01:43:35;;;;;;;12.80;11.68;;;;;;;;;;2089228;28;20176;-51
2021/06/09 01:44:39;;;;;;;12.60;11.30;;;;;;;;;;2090010;28;20629;-54
2021/06/09 01:45:40;;;;;;;14.18;12.48;;;;;;;;;;2092531;28;20194;-53
2021/06/09 01:46:41;;;;;;;13.43;12.02;;;;;;;;;;2083330;28;20177;-55
2021/06/09 01:47:41;;;;;;;13.63;12.20;;;;;;;;;;2080995;28;20744;-51
2021/06/09 01:48:42;;;;;;;13.15;11.90;;;;;;;;;;2084511;28;20187;-54
2021/06/09 01:49:43;;;;;;;12.70;11.45;;;;;;;;;;2087832;28;20907;-54
2021/06/09 01:50:43;;;;;;;12.23;11.13;;;;;;;;;;2081070;28;20259;-53
2021/06/09 01:51:43;;;;;;;11.73;10.73;;;;;;;;;;2081199;28;20213;-53
2021/06/09 01:52:44;;;;;;;13.00;11.68;;;;;;;;;;2098269;28;20230;-53
2021/06/09 01:53:45;;;;;;;13.23;11.93;;;;;;;;;;2095364;28;20179;-53
2021/06/09 01:54:45;;;;;;;12.88;11.50;;;;;;;;;;2082622;28;20180;-55
2021/06/09 01:55:48;;;;;;;12.13;10.90;;;;;;;;;;2082641;28;20637;-54
2021/06/09 01:56:49;;;;;;;14.52;11.43;;;;;;;;;;2089834;28;20271;-53
2021/06/09 01:57:49;;;;;;;11.82;10.80;;;;;;;;;;2089664;28;20174;-55
2021/06/09 01:58:50;;;;;;;12.45;11.25;;;;;;;;;;2088207;28;20582;-54
2021/06/09 01:59:50;;;;;;;13.10;11.90;;;;;;;;;;2090722;28;20644;-53
2021/06/09 02:00:51;;;;;;;12.57;11.27;;;;;;;;;;2095804;28;20171;-58
2021/06/09 02:01:51;;;;;;;12.18;11.07;;;;;;;;;;2088832;28;20188;-53
2021/06/09 02:02:54;;;;;;;13.20;11.38;;;;;;;;;;2078517;28;20172;-55
2021/06/09 02:03:54;;;;;;;12.98;11.77;;;;;;;;;;2072834;28;20231;-53
2021/06/09 02:04:58;;;;;;;12.90;11.60;;;;;;;;;;2080786;28;20176;-54
2021/06/09 02:05:58;;;;;;;12.77;11.18;;;;;;;;;;2096412;28;20197;-55
2021/06/09 02:06:58;;;;;;;13.93;11.93;;;;;;;;;;2090423;28;20210;-53
2021/06/09 02:07:59;;;;;;;13.95;12.27;;;;;;;;;;2085350;28;20176;-52
2021/06/09 02:08:59;;;;;;;11.82;10.65;;;;;;;;;;2081932;28;20589;-55
2021/06/09 02:10:00;;;;;;;13.23;11.93;;;;;;;;;;2089633;28;20179;-53
2021/06/09 02:11:00;;;;;;;14.43;11.38;;;;;;;;;;2090485;28;20180;-55
2021/06/09 02:12:01;;;;;;;12.57;11.43;;;;;;;;;;2081309;28;20254;-51
2021/06/09 02:13:03;;;;;;;11.85;10.75;;;;;;;;;;2080724;28;20176;-52
2021/06/09 02:14:03;;;;;;;13.48;12.18;;;;;;;;;;2084020;28;20188;-52
2021/06/09 02:15:04;;;;;;;12.95;11.65;;;;;;;;;;2081031;28;20755;-53
2021/06/09 02:16:04;;;;;;;13.88;11.90;;;;;;;;;;2085435;28;20192;-54
2021/06/09 02:17:05;;;;;;;16.50;12.30;;;;;;;;;;2083834;28;20203;-54
2021/06/09 02:19:12;;;;;;;12.27;10.98;;;;;;;;;;2094074;28;20182;-55
2021/06/09 02:20:13;;;;;;;14.38;11.63;;;;;;;;;;2073002;28;20169;-53
2021/06/09 02:21:13;;;;;;;11.57;10.60;;;;;;;;;;2076954;28;20199;-55
2021/06/09 02:22:13;;;;;;;12.93;11.70;;;;;;;;;;2089098;28;20171;-53
2021/06/09 02:23:15;;;;;;;13.02;11.82;;;;;;;;;;2090110;28;20174;-52
2021/06/09 02:24:16;;;;;;;12.43;11.23;;;;;;;;;;2091738;28;20207;-55
2021/06/09 02:25:16;;;;;;;12.80;11.60;;;;;;;;;;2086611;28;20314;-53
2021/06/09 02:26:16;;;;;;;13.00;11.70;;;;;;;;;;2090283;28;20222;-52
2021/06/09 02:27:17;;;;;;;13.60;12.20;;;;;;;;;;2089475;28;20268;-57
2021/06/09 02:28:18;;;;;;;13.65;12.35;;;;;;;;;;2088148;28;20183;-53
2021/06/09 02:29:19;;;;;;;13.38;12.07;;;;;;;;;;2078366;28;20600;-54
2021/06/09 02:30:19;;;;;;;13.02;11.85;;;;;;;;;;2073205;28;20272;-54
2021/06/09 02:31:19;;;;;;;13.20;11.90;;;;;;;;;;2078312;28;20180;-51
2021/06/09 02:32:21;;;;;;;13.00;11.75;;;;;;;;;;2084488;28;20168;-55
2021/06/09 02:33:23;;;;;;;13.30;12.00;;;;;;;;;;2080400;28;20188;-52
2021/06/09 02:34:24;;;;;;;13.48;12.23;;;;;;;;;;2085401;28;20208;-55
2021/06/09 02:35:25;;;;;;;13.38;12.07;;;;;;;;;;2086811;28;20172;-56
2021/06/09 02:36:25;;;;;;;13.43;12.02;;;;;;;;;;2094253;28;20175;-55
2021/06/09 02:37:26;;;;;;;13.05;11.82;;;;;;;;;;2089393;28;20238;-53
2021/06/09 02:38:26;;;;;;;13.65;11.85;;;;;;;;;;2089993;28;20172;-54
2021/06/09 02:39:26;;;;;;;14.60;11.82;;;;;;;;;;2090300;28;20214;-55
2021/06/09 02:40:27;;;;;;;13.02;11.75;;;;;;;;;;2086692;28;20193;-53
2021/06/09 02:41:27;;;;;;;13.45;11.70;;;;;;;;;;2088330;28;20193;-54
2021/06/09 02:42:27;;;;;;;13.77;12.05;;;;;;;;;;2091455;28;20640;-53
2021/06/09 02:43:33;;;;;;;12.85;11.55;;;;;;;;;;2088651;28;20282;-54
2021/06/09 02:44:34;;;;;;;13.07;11.23;;;;;;;;;;2080572;28;20169;-54
2021/06/09 02:45:34;;;;;;;12.90;11.63;;;;;;;;;;2064040;28;20272;-54
2021/06/09 02:46:37;;;;;;;11.88;10.68;;;;;;;;;;2072998;28;20198;-54
2021/06/09 02:47:38;;;;;;;13.65;12.38;;;;;;;;;;2089780;28;20651;-54
2021/06/09 02:48:43;;;;;;;13.18;11.85;;;;;;;;;;2089456;28;20313;-54
2021/06/09 02:49:44;;;;;;;13.45;12.05;;;;;;;;;;2089411;28;20255;-51
2021/06/09 02:50:44;;;;;;;13.27;11.88;;;;;;;;;;2080605;28;20177;-51
2021/06/09 02:51:50;;;;;;;13.48;11.25;;;;;;;;;;2080571;28;20316;-56
2021/06/09 02:52:53;;;;;;;13.55;12.32;;;;;;;;;;2090127;28;20769;-56
2021/06/09 02:54:01;;;;;;;12.65;11.27;;;;;;;;;;2086302;28;20245;-54
2021/06/09 02:55:19;;;;;;;13.23;11.85;;;;;;;;;;2080742;28;20180;-55
2021/06/09 02:56:26;;;;;;;12.38;11.10;;;;;;;;;;2083485;28;20187;-53
2021/06/09 02:57:53;;;;;;;11.52;10.27;;;;;;;;;;2089292;28;20282;-51
2021/06/09 02:58:58;;;;;;;13.65;11.63;;;;;;;;;;2065709;28;20217;-54
2021/06/09 03:00:10;;;;;;;12.68;11.50;;;;;;;;;;2080474;28;20239;-55
2021/06/09 03:01:17;;;;;;;12.38;11.15;;;;;;;;;;2078542;28;20218;-53
2021/06/09 03:02:25;;;;;;;13.10;11.80;;;;;;;;;;2089640;28;20751;-54
2021/06/09 03:03:30;;;;;;;12.20;10.95;;;;;;;;;;2084543;28;20184;-53
2021/06/09 03:04:38;;;;;;;13.70;11.52;;;;;;;;;;2086599;28;20254;-51
2021/06/09 03:05:40;;;;;;;11.93;10.75;;;;;;;;;;2093337;28;20642;-51
2021/06/09 03:06:44;;;;;;;13.57;12.27;;;;;;;;;;2090016;28;20206;-54
2021/06/09 03:07:51;;;;;;;13.13;11.68;;;;;;;;;;2081821;28;20195;-52
2021/06/09 03:09:04;;;;;;;14.68;11.95;;;;;;;;;;2087936;28;20168;-52
2021/06/09 03:10:10;;;;;;;13.23;12.02;;;;;;;;;;2095269;28;20178;-54
2021/06/09 03:11:27;;;;;;;12.43;11.23;;;;;;;;;;2105468;28;20167;-56
2021/06/09 03:12:47;;;;;;;13.85;12.35;;;;;;;;;;2102812;28;20175;-57
2021/06/09 03:14:00;;;;;;;13.98;12.63;;;;;;;;;;2093404;28;20253;-54
2021/06/09 03:15:11;;;;;;;14.05;11.85;;;;;;;;;;2080391;28;20180;-53
2021/06/09 03:16:14;;;;;;;13.40;12.02;;;;;;;;;;2074486;28;20169;-50
2021/06/09 03:17:16;;;;;;;13.25;11.95;;;;;;;;;;2083153;28;20215;-53
2021/06/09 03:18:18;;;;;;;13.38;12.07;;;;;;;;;;2089289;28;20190;-55
2021/06/09 03:19:20;;;;;;;14.25;11.50;;;;;;;;;;2087525;28;20466;-53
2021/06/09 03:20:39;;;;;;;13.40;12.10;;;;;;;;;;2095034;28;20176;-56
2021/06/09 03:21:42;;;;;;;12.73;11.52;;;;;;;;;;2089183;28;20558;-54
2021/06/09 03:22:55;;;;;;;12.35;11.05;;;;;;;;;;2087435;28;20180;-55
2021/06/09 03:24:21;;;;;;;12.40;11.15;;;;;;;;;;2078689;28;20199;-54
2021/06/09 03:25:23;;;;;;;11.93;10.82;;;;;;;;;;2088070;28;20176;-51
2021/06/09 03:26:43;;;;;;;11.50;10.30;;;;;;;;;;2088866;28;20225;-54
2021/06/09 03:27:47;;;;;;;14.88;11.85;;;;;;;;;;2084387;28;20266;-54
2021/06/09 03:28:47;;;;;;;12.27;10.93;;;;;;;;;;2082826;28;20176;-51
2021/06/09 03:29:58;;;;;;;12.25;11.05;;;;;;;;;;2086381;28;20168;-50
2021/06/09 03:31:00;;;;;;;12.70;11.50;;;;;;;;;;2080728;28;20188;-52
2021/06/09 03:32:02;;;;;;;11.02;10.02;;;;;;;;;;2081091;28;20647;-54
2021/06/09 03:33:04;;;;;;;13.48;12.30;;;;;;;;;;2089028;28;20167;-54
2021/06/09 03:34:06;;;;;;;13.13;11.82;;;;;;;;;;2089141;28;20203;-54
2021/06/09 03:35:16;;;;;;;12.25;11.15;;;;;;;;;;2092275;28;20245;-56
2021/06/09 03:36:37;;;;;;;11.57;10.57;;;;;;;;;;2084558;28;20172;-56
2021/06/09 03:37:39;;;;;;;10.90;9.88;;;;;;;;;;2071065;28;20187;-54
2021/06/09 03:38:47;;;;;;;13.50;11.10;;;;;;;;;;2083458;28;20192;-56
2021/06/09 03:39:51;;;;;;;11.55;10.48;;;;;;;;;;2079871;28;20254;-55
2021/06/09 03:40:53;;;;;;;11.07;10.00;;;;;;;;;;2073785;28;21265;-54
2021/06/09 03:41:55;;;;;;;12.02;10.40;;;;;;;;;;2081517;28;20767;-52
2021/06/09 03:42:58;;;;;;;11.52;10.38;;;;;;;;;;2089140;28;20256;-54
2021/06/09 03:43:59;;;;;;;11.35;10.35;;;;;;;;;;2088933;28;20199;-55
2021/06/09 03:45:00;;;;;;;11.30;10.30;;;;;;;;;;2081037;28;20698;-55
2021/06/09 03:46:01;;;;;;;11.10;10.13;;;;;;;;;;2080478;28;20191;-55
2021/06/09 03:47:01;;;;;;;11.70;10.60;;;;;;;;;;2079969;28;20161;-54
2021/06/09 03:48:03;;;;;;;11.70;10.57;;;;;;;;;;2084588;28;20612;-57
2021/06/09 03:49:08;;;;;;;11.50;10.30;;;;;;;;;;2088796;28;20180;-51
2021/06/09 03:50:08;;;;;;;10.90;9.93;;;;;;;;;;2081666;28;20200;-54
2021/06/09 03:51:19;;;;;;;11.55;10.50;;;;;;;;;;2082486;28;20650;-54
2021/06/09 03:52:20;;;;;;;11.85;10.68;;;;;;;;;;2079986;28;20165;-52
2021/06/09 03:53:22;;;;;;;11.35;10.23;;;;;;;;;;2080360;28;20176;-52
2021/06/09 03:54:23;;;;;;;11.18;10.15;;;;;;;;;;2088716;28;20195;-54
2021/06/09 03:55:25;;;;;;;10.73;9.70;;;;;;;;;;2091166;28;20190;-53
2021/06/09 03:56:26;;;;;;;11.40;10.30;;;;;;;;;;2080168;28;20212;-55
2021/06/09 03:57:30;;;;;;;11.57;10.20;;;;;;;;;;2080168;28;20595;-54
2021/06/09 03:58:31;;;;;;;12.52;11.30;;;;;;;;;;2089375;28;20167;-55
2021/06/09 03:59:31;;;;;;;11.60;10.52;;;;;;;;;;2092436;28;20167;-55
2021/06/09 04:00:32;;;;;;;11.38;10.35;;;;;;;;;;2090428;28;20170;-54
2021/06/09 04:01:35;;;;;;;13.85;10.38;;;;;;;;;;2087973;28;20632;-52
2021/06/09 04:02:36;;;;;;;11.32;10.38;;;;;;;;;;2089345;28;20207;-54
2021/06/09 04:03:37;;;;;;;11.18;10.02;;;;;;;;;;2088324;28;20662;-54
2021/06/09 04:04:38;;;;;;;11.27;10.30;;;;;;;;;;2082926;28;20210;-52
2021/06/09 04:05:40;;;;;;;10.43;9.52;;;;;;;;;;2074520;28;20176;-51
2021/06/09 04:06:42;;;;;;;11.98;10.68;;;;;;;;;;2080419;28;20168;-50
2021/06/09 04:07:43;;;;;;;11.63;10.43;;;;;;;;;;2086644;28;20275;-50
2021/06/09 04:08:45;;;;;;;11.45;9.90;;;;;;;;;;2079625;28;20179;-53
2021/06/09 04:09:45;;;;;;;10.45;9.52;;;;;;;;;;2083945;28;20229;-54
2021/06/09 04:10:47;;;;;;;11.25;10.15;;;;;;;;;;2086083;28;20249;-52
2021/06/09 04:11:59;;;;;;;14.80;10.93;;;;;;;;;;2080451;28;20729;-54
2021/06/09 04:13:00;;;;;;;11.82;10.63;;;;;;;;;;2072085;28;20177;-53
2021/06/09 04:14:00;;;;;;;11.50;10.43;;;;;;;;;;2082062;28;20291;-51
2021/06/09 04:15:02;;;;;;;13.40;10.43;;;;;;;;;;2088862;28;20195;-52
2021/06/09 04:16:03;;;;;;;11.27;10.30;;;;;;;;;;2079557;28;20733;-54
2021/06/09 04:17:04;;;;;;;11.05;10.05;;;;;;;;;;2072343;28;20376;-55
2021/06/09 04:18:06;;;;;;;11.63;10.50;;;;;;;;;;2085153;28;20163;-52
2021/06/09 04:19:07;;;;;;;11.98;10.02;;;;;;;;;;2089566;28;20656;-55
2021/06/09 04:20:08;;;;;;;10.85;9.75;;;;;;;;;;2088186;28;20167;-51
2021/06/09 04:21:10;;;;;;;11.75;10.18;;;;;;;;;;2089399;28;20176;-53
2021/06/09 04:22:10;;;;;;;11.50;9.68;;;;;;;;;;2088502;28;20160;-54
2021/06/09 04:23:11;;;;;;;13.52;11.20;;;;;;;;;;2089345;28;20632;-53
2021/06/09 04:24:11;;;;;;;16.17;9.98;;;;;;;;;;2088286;28;20206;-50
2021/06/09 04:25:12;;;;;;;11.60;10.27;;;;;;;;;;2079668;28;20574;-51
2021/06/09 04:26:16;;;;;;;11.90;10.38;;;;;;;;;;2080495;28;20168;-54
2021/06/09 04:27:20;;;;;;;12.88;10.55;;;;;;;;;;2080061;28;20208;-52
2021/06/09 04:28:20;;;;;;;11.68;10.52;;;;;;;;;;2079715;28;20267;-51
2021/06/09 04:29:22;;;;;;;11.95;10.18;;;;;;;;;;2084088;28;20171;-53
2021/06/09 04:30:23;;;;;;;12.82;10.30;;;;;;;;;;2084050;28;20175;-53
2021/06/09 04:31:26;;;;;;;11.93;10.73;;;;;;;;;;2072932;28;20189;-55
2021/06/09 04:32:27;;;;;;;12.45;10.32;;;;;;;;;;2080256;28;20537;-54
2021/06/09 04:33:30;;;;;;;12.95;11.23;;;;;;;;;;2086424;28;20180;-50
2021/06/09 04:34:47;;;;;;;11.80;10.63;;;;;;;;;;2071720;28;20188;-53
2021/06/09 04:35:48;;;;;;;12.50;10.40;;;;;;;;;;2075668;28;20188;-54
2021/06/09 04:36:52;;;;;;;11.77;10.68;;;;;;;;;;2086034;28;20186;-53
2021/06/09 04:37:53;;;;;;;12.25;11.15;;;;;;;;;;2088050;28;20164;-52
2021/06/09 04:38:53;;;;;;;11.38;10.23;;;;;;;;;;2087066;28;20736;-55
2021/06/09 04:39:53;;;;;;;11.43;10.32;;;;;;;;;;2090069;28;20163;-54
2021/06/09 04:40:54;;;;;;;11.07;10.07;;;;;;;;;;2087347;28;20199;-54
2021/06/09 04:41:54;;;;;;;11.07;9.85;;;;;;;;;;2089826;28;20604;-56
2021/06/09 04:42:55;;;;;;;11.40;10.30;;;;;;;;;;2087178;28;20181;-54
2021/06/09 04:43:55;;;;;;;11.55;10.43;;;;;;;;;;2089915;28;20195;-54
2021/06/09 04:44:56;;;;;;;11.27;10.10;;;;;;;;;;2086340;28;20168;-52
2021/06/09 04:45:56;;;;;;;11.45;10.45;;;;;;;;;;2088290;28;20168;-54
2021/06/09 04:46:57;;;;;;;11.15;10.00;;;;;;;;;;2082477;28;20565;-55
2021/06/09 04:47:57;;;;;;;11.55;10.48;;;;;;;;;;2082348;28;20255;-55
2021/06/09 04:49:04;;;;;;;11.57;10.45;;;;;;;;;;2090798;28;20221;-56
2021/06/09 04:50:05;;;;;;;11.02;10.02;;;;;;;;;;2092959;28;20175;-54
2021/06/09 04:51:06;;;;;;;11.80;10.75;;;;;;;;;;2093236;28;20175;-53
2021/06/09 04:52:07;;;;;;;11.45;10.30;;;;;;;;;;2073743;28;20207;-53
2021/06/09 04:53:11;;;;;;;11.88;10.68;;;;;;;;;;2074591;28;20168;-53
2021/06/09 04:54:11;;;;;;;12.10;10.75;;;;;;;;;;2084317;28;20246;-54
2021/06/09 04:55:11;;;;;;;11.60;10.48;;;;;;;;;;2091770;28;20301;-55
2021/06/09 04:56:12;;;;;;;11.48;10.48;;;;;;;;;;2088322;28;20196;-55
2021/06/09 04:57:12;;;;;;;10.82;9.75;;;;;;;;;;2090633;28;20290;-56
2021/06/09 04:58:13;;;;;;;11.32;10.23;;;;;;;;;;2081986;28;20652;-57
2021/06/09 04:59:13;;;;;;;10.15;9.02;;;;;;;;;;2081740;28;20169;-56
2021/06/09 05:00:14;;;;;;;10.48;9.48;;;;;;;;;;2088857;28;20187;-53
2021/06/09 05:01:15;;;;;;;10.88;9.48;;;;;;;;;;2090013;28;20175;-63
2021/06/09 05:02:15;;;;;;;11.02;9.95;;;;;;;;;;2081481;28;20172;-55
2021/06/09 05:03:16;;;;;;;12.07;10.95;;;;;;;;;;2075944;28;20189;-55
2021/06/09 05:04:16;;;;;;;11.45;10.07;;;;;;;;;;2089876;28;20668;-57
2021/06/09 05:05:17;;;;;;;10.95;9.82;;;;;;;;;;2090417;28;20172;-52
2021/06/09 05:06:17;;;;;;;11.80;10.73;;;;;;;;;;2091253;28;20167;-55
2021/06/09 05:07:17;;;;;;;12.23;10.40;;;;;;;;;;2091238;28;20254;-55
2021/06/09 05:08:18;;;;;;;11.20;10.10;;;;;;;;;;2089745;28;20226;-54
2021/06/09 05:09:18;;;;;;;11.18;9.95;;;;;;;;;;2073807;28;20262;-56
2021/06/09 05:10:18;;;;;;;11.23;10.13;;;;;;;;;;2073022;28;20689;-55
2021/06/09 05:11:23;;;;;;;11.32;10.23;;;;;;;;;;2093536;28;20233;-57
2021/06/09 05:12:28;;;;;;;10.38;9.38;;;;;;;;;;2090275;28;20252;-55
2021/06/09 05:13:34;;;;;;;10.43;9.45;;;;;;;;;;2081688;28;20184;-55
2021/06/09 05:14:36;;;;;;;10.52;9.52;;;;;;;;;;2083023;28;20175;-54
2021/06/09 05:15:39;;;;;;;11.93;9.88;;;;;;;;;;2092281;28;20198;-54
2021/06/09 05:16:39;;;;;;;12.00;9.93;;;;;;;;;;2092259;28;20182;-52
2021/06/09 05:17:47;;;;;;;11.13;10.10;;;;;;;;;;2090161;28;20262;-56
2021/06/09 05:18:50;;;;;;;10.63;9.65;;;;;;;;;;2089174;28;20902;-53
2021/06/09 05:19:51;;;;;;;10.75;9.10;;;;;;;;;;2089558;28;20665;-54
2021/06/09 05:20:52;;;;;;;10.15;9.23;;;;;;;;;;2081401;28;20274;-53
2021/06/09 05:22:00;;;;;;;9.77;8.88;;;;;;;;;;2083063;28;20652;-55
2021/06/09 05:23:08;;;;;;;11.23;10.13;;;;;;;;;;2083424;28;20183;-53
2021/06/09 05:24:09;;;;;;;14.27;9.15;;;;;;;;;;2090074;28;20207;-51
2021/06/09 05:25:11;;;;;;;10.15;9.18;;;;;;;;;;2090421;28;20676;-51
2021/06/09 05:26:12;;;;;;;10.35;9.35;;;;;;;;;;2090544;28;20172;-51
2021/06/09 05:27:15;;;;;;;11.43;10.13;;;;;;;;;;2086045;28;20192;-55
2021/06/09 05:28:15;;;;;;;11.15;10.07;;;;;;;;;;2089932;28;20229;-54
2021/06/09 05:29:16;;;;;;;11.13;10.02;;;;;;;;;;2107726;22;20690;-53
2021/06/09 05:30:18;;;;;;;11.68;9.50;;;;;;;;;;2114116;28;20190;-56
2021/06/09 05:31:19;;;;;;;10.70;9.70;;;;;;;;;;2105805;28;20222;-58
2021/06/09 05:32:19;;;;;;;10.65;9.75;;;;;;;;;;2105575;28;20167;-56
2021/06/09 05:33:20;;;;;;;10.32;9.32;;;;;;;;;;2109810;28;20780;-53
2021/06/09 05:34:22;;;;;;;10.95;9.85;;;;;;;;;;2114019;28;20181;-55
2021/06/09 05:35:22;;;;;;;10.43;9.55;;;;;;;;;;2111458;28;20626;-59
2021/06/09 05:36:23;;;;;;;10.75;9.65;;;;;;;;;;2110172;28;20173;-56
2021/06/09 05:37:23;;;;;;;12.10;10.05;;;;;;;;;;2104800;28;20654;-56
2021/06/09 05:38:24;;;;;;;10.88;9.88;;;;;;;;;;2104231;28;20163;-58
2021/06/09 05:39:25;;;;;;;11.43;10.38;;;;;;;;;;2109536;28;20209;-58
2021/06/09 05:40:25;;;;;;;10.98;10.07;;;;;;;;;;2110119;28;20237;-59
2021/06/09 05:41:26;;;;;;;9.93;9.07;;;;;;;;;;2110018;28;20246;-55
2021/06/09 05:42:26;;;;;;;10.55;9.55;;;;;;;;;;2109980;28;20255;-58
2021/06/09 05:43:27;;;;;;;10.15;9.25;;;;;;;;;;2110326;28;20170;-58
2021/06/09 05:44:29;;;;;;;11.30;10.23;;;;;;;;;;2107579;28;20235;-57
2021/06/09 05:45:31;;;;;;;10.98;9.82;;;;;;;;;;2108988;28;20174;-57
2021/06/09 05:46:32;;;;;;;10.55;9.55;;;;;;;;;;2106158;28;20709;-55
2021/06/09 05:47:37;;;;;;;10.05;9.20;;;;;;;;;;2111987;28;20181;-57
2021/06/09 05:48:41;;;;;;;11.55;10.55;;;;;;;;;;2104718;28;20198;-60
2021/06/09 05:49:42;;;;;;;14.30;9.95;;;;;;;;;;2106102;28;20193;-58
2021/06/09 05:50:42;;;;;;;11.25;10.25;;;;;;;;;;2106053;28;20180;-59
2021/06/09 05:51:42;;;;;;;11.57;10.35;;;;;;;;;;2107221;28;20242;-60
2021/06/09 05:52:44;;;;;;;12.73;11.30;;;;;;;;;;2105513;28;20212;-59
2021/06/09 05:53:44;;;;;;;11.77;10.57;;;;;;;;;;2106864;28;20188;-60
2021/06/09 05:54:45;;;;;;;11.60;10.48;;;;;;;;;;2096726;28;20657;-57
2021/06/09 05:55:46;;;;;;;12.85;11.18;;;;;;;;;;2097259;28;20241;-57
2021/06/09 05:56:46;;;;;;;12.95;11.70;;;;;;;;;;2106783;28;20174;-62
2021/06/09 05:57:47;;;;;;;10.85;9.85;;;;;;;;;;2099097;28;20269;-59
2021/06/09 05:58:47;;;;;;;12.10;11.00;;;;;;;;;;2104336;28;20208;-60
2021/06/09 05:59:48;;;;;;;11.45;10.50;;;;;;;;;;2105385;28;20188;-58
2021/06/09 06:01:00;;;;;;;12.50;11.23;;;;;;;;;;2097205;28;20163;-58
2021/06/09 06:02:00;;;;;;;12.95;10.45;;;;;;;;;;2098110;28;20529;-59
2021/06/09 06:03:04;;;;;;;12.07;10.98;;;;;;;;;;2103789;28;20254;-56